Time;durP1;ratioP1;P1;durP2;ratioP2;P2;SDS_P1;SDS_P2;PMS_P1;PMS_P2;Temp;Humidity;BMP_temperature;BMP_pressure;BME280_temperature;BME280_humidity;BME280_pressure;Samples;Min_cycle;Max_cycle;Signal;HPM_P1;HPM_P2
2023/05/08 00:02:06;;;;;;;8.13;7.05;;;14.10;99.90;;;;;;5000539;28;20026;-82
2023/05/08 00:04:32;;;;;;;10.55;7.70;;;14.10;99.90;;;;;;5000732;28;20057;-82
2023/05/08 00:06:58;;;;;;;9.63;8.25;;;14.10;99.90;;;;;;5001320;28;20027;-81
2023/05/08 00:09:23;;;;;;;8.68;7.38;;;14.10;99.90;;;;;;5001107;28;20079;-81
2023/05/08 00:11:49;;;;;;;10.10;7.55;;;14.00;99.90;;;;;;5001115;28;20071;-82
2023/05/08 00:14:14;;;;;;;9.20;7.65;;;14.10;99.90;;;;;;5001106;28;20050;-82
2023/05/08 00:16:40;;;;;;;11.23;8.05;;;14.00;99.90;;;;;;5001261;28;20030;-82
2023/05/08 00:19:06;;;;;;;13.73;7.95;;;14.00;99.90;;;;;;4999364;28;20116;-82
2023/05/08 00:21:31;;;;;;;10.48;7.38;;;14.00;99.90;;;;;;5000038;28;20030;-82
2023/05/08 00:23:57;;;;;;;10.52;7.55;;;13.90;99.90;;;;;;5001332;28;20081;-82
2023/05/08 00:26:22;;;;;;;10.45;7.70;;;14.00;99.90;;;;;;4999358;28;20053;-81
2023/05/08 00:28:48;;;;;;;12.43;8.73;;;13.90;99.90;;;;;;5000016;28;20041;-82
2023/05/08 00:31:13;;;;;;;10.10;7.63;;;13.90;99.90;;;;;;5000296;28;20030;-81
2023/05/08 00:33:39;;;;;;;9.57;8.07;;;13.90;99.90;;;;;;5000856;28;20026;-81
2023/05/08 00:36:05;;;;;;;10.95;8.50;;;13.90;99.90;;;;;;4999658;28;20545;-81
2023/05/08 00:38:32;;;;;;;10.70;8.52;;;13.90;99.90;;;;;;5000944;28;20054;-82
2023/05/08 00:40:59;;;;;;;9.77;7.95;;;13.90;99.90;;;;;;5000557;28;20069;-82
2023/05/08 00:43:27;;;;;;;9.85;8.77;;;13.90;99.90;;;;;;4999972;28;20053;-82
2023/05/08 00:45:54;;;;;;;11.55;7.63;;;13.90;99.90;;;;;;5000703;28;20586;-82
2023/05/08 00:48:24;;;;;;;13.77;8.13;;;13.90;99.90;;;;;;5000016;28;20040;-82
2023/05/08 00:50:51;;;;;;;11.10;8.38;;;13.90;99.90;;;;;;5001166;28;20079;-82
2023/05/08 00:53:18;;;;;;;12.32;9.00;;;13.90;99.90;;;;;;5001824;28;20026;-81
2023/05/08 00:55:44;;;;;;;15.07;9.25;;;13.90;99.90;;;;;;5002313;28;20644;-81
2023/05/08 00:58:11;;;;;;;11.20;9.15;;;13.90;99.90;;;;;;5001388;28;20057;-82
2023/05/08 01:00:40;;;;;;;11.10;8.48;;;13.90;99.90;;;;;;4998997;28;20034;-81
2023/05/08 01:03:08;;;;;;;9.95;8.18;;;13.80;99.90;;;;;;5005876;28;20033;-82
2023/05/08 01:05:34;;;;;;;10.57;8.30;;;13.90;99.90;;;;;;5001759;28;20017;-82
2023/05/08 01:08:00;;;;;;;10.50;7.50;;;13.90;99.90;;;;;;4999092;28;20121;-81
2023/05/08 01:10:39;;;;;;;12.82;7.78;;;13.80;99.90;;;;;;4998408;28;20034;-81
2023/05/08 01:13:17;;;;;;;9.45;7.13;;;13.80;99.90;;;;;;4998628;28;20026;-81
2023/05/08 01:15:49;;;;;;;8.32;6.68;;;13.90;99.90;;;;;;4998747;28;20479;-81
2023/05/08 01:18:41;;;;;;;9.68;6.82;;;13.80;99.90;;;;;;4997041;28;20049;-82
2023/05/08 01:21:26;;;;;;;10.63;7.10;;;13.80;99.90;;;;;;4997783;28;20395;-82
2023/05/08 01:24:29;;;;;;;9.27;7.28;;;13.80;99.90;;;;;;4998255;28;20034;-82
2023/05/08 01:27:42;;;;;;;7.65;6.50;;;13.80;99.90;;;;;;4999020;28;20030;-82
2023/05/08 01:30:30;;;;;;;11.50;7.50;;;13.80;99.90;;;;;;4997525;28;20041;-81
2023/05/08 01:33:01;;;;;;;7.15;5.97;;;13.80;99.90;;;;;;4997853;28;20040;-82
2023/05/08 01:35:46;;;;;;;8.57;6.90;;;13.80;99.90;;;;;;4997721;28;20026;-82
2023/05/08 01:38:25;;;;;;;7.73;6.20;;;13.80;99.90;;;;;;4997393;28;20042;-82
2023/05/08 01:41:00;;;;;;;8.60;6.03;;;13.80;99.90;;;;;;4997346;28;20041;-82
2023/05/08 01:43:34;;;;;;;7.30;5.43;;;13.80;99.90;;;;;;4997732;28;20128;-82
2023/05/08 01:46:04;;;;;;;8.95;6.38;;;13.80;99.90;;;;;;4997028;28;20049;-81
2023/05/08 01:48:34;;;;;;;10.75;6.63;;;13.80;99.90;;;;;;4996821;28;20030;-81
2023/05/08 01:51:16;;;;;;;6.80;6.10;;;13.80;99.90;;;;;;4995555;28;20030;-81
2023/05/08 01:53:48;;;;;;;9.82;6.63;;;13.80;99.90;;;;;;4995883;28;20025;-82
2023/05/08 01:56:22;;;;;;;9.13;7.10;;;13.70;99.90;;;;;;4995861;28;21265;-82
2023/05/08 01:58:53;;;;;;;8.45;6.53;;;13.80;99.90;;;;;;4994939;28;20917;-82
2023/05/08 02:01:22;;;;;;;11.95;8.88;;;13.80;99.90;;;;;;4993565;28;20102;-82
2023/05/08 02:03:48;;;;;;;11.18;9.02;;;13.70;99.90;;;;;;4993494;28;20030;-82
2023/05/08 02:06:16;;;;;;;13.77;10.60;;;13.70;99.90;;;;;;4991930;28;20045;-82
2023/05/08 02:08:44;;;;;;;11.85;10.32;;;13.70;99.90;;;;;;4991604;28;20034;-82
2023/05/08 02:11:12;;;;;;;13.82;10.93;;;13.60;99.90;;;;;;4992573;28;20100;-82
2023/05/08 02:13:39;;;;;;;12.77;10.98;;;13.60;99.90;;;;;;4996824;28;20038;-82
2023/05/08 02:16:07;;;;;;;13.88;10.75;;;13.50;99.90;;;;;;4996596;28;20025;-82
2023/05/08 02:18:34;;;;;;;14.20;10.52;;;13.50;99.90;;;;;;4996048;28;20038;-81
2023/05/08 02:21:02;;;;;;;14.88;11.23;;;13.50;99.90;;;;;;4996056;28;20064;-82
2023/05/08 02:23:30;;;;;;;16.52;12.13;;;13.50;99.90;;;;;;4999288;28;20042;-81
2023/05/08 02:25:56;;;;;;;17.00;11.63;;;13.40;99.90;;;;;;4999896;28;20085;-82
2023/05/08 02:28:23;;;;;;;14.70;11.05;;;13.40;99.90;;;;;;4999578;28;20041;-82
2023/05/08 02:30:50;;;;;;;12.93;10.50;;;13.40;99.90;;;;;;4998265;28;20050;-82
2023/05/08 02:33:17;;;;;;;15.85;11.25;;;13.30;99.90;;;;;;4998366;28;20030;-81
2023/05/08 02:35:45;;;;;;;13.55;11.02;;;13.30;99.90;;;;;;4996369;28;20035;-82
2023/05/08 02:38:13;;;;;;;13.88;11.02;;;13.30;99.90;;;;;;4997652;28;20041;-82
2023/05/08 02:40:40;;;;;;;14.85;11.25;;;13.30;99.90;;;;;;5002729;28;20029;-81
2023/05/08 02:43:07;;;;;;;15.52;11.85;;;13.20;99.90;;;;;;4998692;28;20027;-81
2023/05/08 02:45:42;;;;;;;14.00;11.13;;;13.20;99.90;;;;;;4993431;28;20045;-82
2023/05/08 02:48:41;;;;;;;17.05;11.55;;;13.20;99.90;;;;;;4996007;28;20041;-82
2023/05/08 02:51:28;;;;;;;16.33;11.32;;;13.20;99.90;;;;;;4976290;28;20618;-83
2023/05/08 02:54:16;;;;;;;15.90;11.50;;;13.20;99.90;;;;;;4998903;28;20916;-83
2023/05/08 02:57:27;;;;;;;14.25;10.27;;;13.10;99.90;;;;;;4997617;28;20065;-82
2023/05/08 03:00:01;;;;;;;15.52;11.38;;;13.10;99.90;;;;;;4989066;28;20056;-83
2023/05/08 03:02:48;;;;;;;15.95;10.90;;;13.10;99.90;;;;;;4998196;28;20037;-82
2023/05/08 03:05:19;;;;;;;11.82;10.52;;;13.00;99.90;;;;;;4998389;28;20033;-82
2023/05/08 03:07:51;;;;;;;14.07;9.73;;;13.00;99.90;;;;;;4998198;28;20102;-82
2023/05/08 03:10:20;;;;;;;14.52;11.07;;;13.00;99.90;;;;;;4997253;28;20041;-82
2023/05/08 03:12:50;;;;;;;15.60;10.18;;;13.00;99.90;;;;;;4996633;28;20030;-82
2023/05/08 03:15:25;;;;;;;12.23;9.80;;;13.00;99.90;;;;;;4996593;28;20037;-82
2023/05/08 03:18:01;;;;;;;13.20;10.10;;;13.00;99.90;;;;;;4995571;28;20193;-82
2023/05/08 03:20:31;;;;;;;12.73;10.05;;;12.90;99.90;;;;;;4996678;28;20116;-83
2023/05/08 03:22:58;;;;;;;14.43;10.63;;;12.90;99.90;;;;;;5000177;28;20030;-82
2023/05/08 03:25:25;;;;;;;15.27;10.25;;;12.90;99.90;;;;;;4998926;28;20072;-83
2023/05/08 03:27:51;;;;;;;13.77;10.43;;;12.90;99.90;;;;;;4999283;28;20034;-83
2023/05/08 03:30:19;;;;;;;13.00;10.68;;;12.80;99.90;;;;;;4998415;28;20908;-83
2023/05/08 03:32:46;;;;;;;15.68;12.13;;;12.80;99.90;;;;;;4997857;28;20033;-83
2023/05/08 03:35:14;;;;;;;13.93;10.18;;;12.80;99.90;;;;;;4999146;28;20130;-82
2023/05/08 03:37:40;;;;;;;16.83;10.43;;;12.70;99.90;;;;;;4999108;28;20066;-82
2023/05/08 03:40:07;;;;;;;12.32;9.20;;;12.70;99.90;;;;;;4999413;28;20068;-82
2023/05/08 03:42:33;;;;;;;12.52;9.85;;;12.70;99.90;;;;;;5000088;28;20053;-82
2023/05/08 03:45:01;;;;;;;11.48;9.77;;;12.60;99.90;;;;;;5000077;28;20026;-81
2023/05/08 03:47:28;;;;;;;15.02;10.23;;;12.60;99.90;;;;;;4999675;28;20036;-82
2023/05/08 03:49:54;;;;;;;13.48;9.98;;;12.50;99.90;;;;;;4998768;28;20036;-82
2023/05/08 03:52:19;;;;;;;14.70;9.90;;;12.50;99.90;;;;;;5000529;28;20032;-82
2023/05/08 03:54:45;;;;;;;16.88;10.25;;;12.40;99.90;;;;;;5000532;28;20034;-81
2023/05/08 03:57:11;;;;;;;12.20;9.80;;;12.40;99.90;;;;;;4999589;28;20201;-82
2023/05/08 03:59:46;;;;;;;13.50;10.13;;;12.40;99.90;;;;;;5000394;28;20094;-82
2023/05/08 04:02:35;;;;;;;14.93;10.95;;;12.30;99.90;;;;;;4999672;28;20042;-82
2023/05/08 04:05:20;;;;;;;12.57;9.57;;;12.30;99.90;;;;;;4995201;28;20100;-82
2023/05/08 04:07:52;;;;;;;12.98;10.07;;;12.20;99.90;;;;;;4991157;28;20054;-82
2023/05/08 04:10:32;;;;;;;11.65;9.82;;;12.20;99.90;;;;;;4996063;28;20033;-82
2023/05/08 04:13:03;;;;;;;11.98;9.80;;;12.20;99.90;;;;;;4997834;28;20109;-82
2023/05/08 04:15:33;;;;;;;12.38;9.80;;;12.10;99.90;;;;;;4997464;28;20034;-82
2023/05/08 04:18:04;;;;;;;12.88;10.65;;;12.10;99.90;;;;;;4997891;28;20197;-82
2023/05/08 04:20:31;;;;;;;14.27;11.27;;;12.00;99.90;;;;;;4999838;28;20039;-80
2023/05/08 04:22:57;;;;;;;12.40;9.48;;;12.00;99.90;;;;;;4997610;28;20030;-82
2023/05/08 04:25:25;;;;;;;13.00;11.45;;;12.00;99.90;;;;;;4998100;28;21682;-82
2023/05/08 04:27:52;;;;;;;15.90;10.82;;;12.00;99.90;;;;;;4997682;28;20034;-82
2023/05/08 04:30:18;;;;;;;13.07;10.38;;;11.90;99.90;;;;;;4996814;28;20062;-82
2023/05/08 04:32:44;;;;;;;13.82;10.25;;;11.90;99.90;;;;;;4995734;28;20686;-82
2023/05/08 04:35:12;;;;;;;13.70;9.57;;;11.90;99.90;;;;;;4997391;28;20057;-82
2023/05/08 04:37:38;;;;;;;13.43;10.20;;;11.90;99.90;;;;;;4996883;28;20085;-82
2023/05/08 04:40:04;;;;;;;19.00;11.80;;;11.90;99.90;;;;;;4996517;28;20064;-81
2023/05/08 04:42:32;;;;;;;14.15;11.55;;;11.90;99.90;;;;;;4997961;28;20046;-82
2023/05/08 04:44:57;;;;;;;12.02;10.43;;;11.90;99.90;;;;;;4995038;28;20040;-82
2023/05/08 04:47:23;;;;;;;15.80;10.68;;;11.90;99.90;;;;;;4994581;28;20026;-82
2023/05/08 04:49:50;;;;;;;13.77;10.05;;;11.90;99.90;;;;;;4993970;28;20048;-82
2023/05/08 04:52:15;;;;;;;14.07;10.27;;;11.90;99.90;;;;;;4995758;28;20152;-82
2023/05/08 04:54:41;;;;;;;13.60;10.40;;;11.90;99.90;;;;;;4996654;28;20180;-82
2023/05/08 04:57:07;;;;;;;14.90;9.93;;;11.80;99.90;;;;;;4994527;28;20074;-81
2023/05/08 04:59:32;;;;;;;14.48;10.68;;;11.80;99.90;;;;;;4994013;28;20041;-83
2023/05/08 05:02:01;;;;;;;14.32;10.30;;;11.80;99.90;;;;;;4994867;28;20176;-82
2023/05/08 05:04:27;;;;;;;13.60;10.48;;;11.80;99.90;;;;;;5009360;28;20076;-83
2023/05/08 05:06:52;;;;;;;15.45;10.82;;;11.80;99.90;;;;;;5003629;28;20033;-82
2023/05/08 05:09:18;;;;;;;14.88;10.90;;;11.80;99.90;;;;;;5002505;28;20376;-83
2023/05/08 05:11:43;;;;;;;13.05;9.90;;;11.80;99.90;;;;;;4993813;28;20125;-82
2023/05/08 05:14:09;;;;;;;13.48;10.00;;;11.80;99.90;;;;;;4992557;28;20495;-83
2023/05/08 05:16:34;;;;;;;13.18;10.05;;;11.80;99.90;;;;;;4992913;28;20388;-81
2023/05/08 05:19:00;;;;;;;13.23;10.15;;;11.80;99.90;;;;;;4992863;28;20038;-83
2023/05/08 05:21:26;;;;;;;49.25;33.10;;;11.80;99.90;;;;;;4993300;28;20041;-82
2023/05/08 05:23:52;;;;;;;14.60;11.05;;;11.80;99.90;;;;;;4993157;28;20037;-82
2023/05/08 05:26:18;;;;;;;14.68;10.57;;;11.80;99.90;;;;;;4999528;28;20037;-83
2023/05/08 05:28:43;;;;;;;23.67;21.35;;;11.80;99.90;;;;;;4992352;28;20026;-83
2023/05/08 05:31:09;;;;;;;15.23;11.57;;;11.80;99.90;;;;;;4989849;28;20030;-83
2023/05/08 05:33:35;;;;;;;13.75;11.10;;;11.70;99.90;;;;;;4989306;28;20029;-83
2023/05/08 05:36:01;;;;;;;17.80;11.18;;;11.70;99.90;;;;;;4990700;28;20038;-83
2023/05/08 05:38:26;;;;;;;16.90;13.02;;;11.80;99.90;;;;;;4988539;28;20129;-87
2023/05/08 05:40:52;;;;;;;15.38;11.02;;;11.70;99.90;;;;;;4990389;28;20092;-83
2023/05/08 05:43:18;;;;;;;11.77;10.57;;;11.70;99.90;;;;;;4993333;28;20030;-84
2023/05/08 05:45:43;;;;;;;15.35;10.90;;;11.70;99.90;;;;;;4990370;28;20053;-84
2023/05/08 05:48:09;;;;;;;11.85;10.50;;;11.70;99.90;;;;;;4990128;28;20456;-83
2023/05/08 05:50:36;;;;;;;15.98;11.45;;;11.70;99.90;;;;;;4990376;28;20029;-84
2023/05/08 05:53:02;;;;;;;13.68;10.55;;;11.70;99.90;;;;;;4989940;28;20117;-84
2023/05/08 05:55:28;;;;;;;12.85;10.85;;;11.60;99.90;;;;;;4991904;28;20109;-83
2023/05/08 05:57:54;;;;;;;14.63;11.10;;;11.70;99.90;;;;;;4991017;28;20026;-86
2023/05/08 06:00:20;;;;;;;15.30;12.00;;;11.60;99.90;;;;;;4987627;28;20042;-87
2023/05/08 06:02:46;;;;;;;16.45;13.88;;;11.60;99.90;;;;;;4989862;28;20038;-87
2023/05/08 06:05:11;;;;;;;14.90;12.15;;;11.60;99.90;;;;;;4989485;28;20069;-88
2023/05/08 06:07:37;;;;;;;14.25;10.60;;;11.60;99.90;;;;;;4988985;28;20573;-88
2023/05/08 06:10:03;;;;;;;14.07;10.90;;;11.70;99.90;;;;;;4988690;28;20116;-87
2023/05/08 06:12:29;;;;;;;13.45;11.15;;;11.70;99.90;;;;;;4990325;28;20038;-85
2023/05/08 06:14:55;;;;;;;13.88;11.38;;;11.70;99.90;;;;;;4996195;28;20057;-85
2023/05/08 06:17:21;;;;;;;14.38;11.10;;;11.70;99.90;;;;;;4997158;28;20038;-85
2023/05/08 06:19:49;;;;;;;12.93;10.82;;;11.70;99.90;;;;;;4996103;28;20085;-85
2023/05/08 06:22:16;;;;;;;15.25;10.93;;;11.70;99.90;;;;;;4998371;28;20181;-85
2023/05/08 06:24:42;;;;;;;15.55;11.00;;;11.70;99.90;;;;;;4997212;28;20023;-85
2023/05/08 06:27:08;;;;;;;17.48;13.32;;;11.80;99.90;;;;;;5000817;28;20048;-85
2023/05/08 06:29:34;;;;;;;15.48;11.65;;;11.80;99.90;;;;;;4998106;28;20069;-85
2023/05/08 06:31:59;;;;;;;12.90;10.32;;;11.80;99.90;;;;;;4999119;28;20030;-85
2023/05/08 06:34:25;;;;;;;12.93;10.00;;;11.90;99.90;;;;;;4999692;28;20033;-85
2023/05/08 06:36:50;;;;;;;11.55;9.55;;;12.00;99.90;;;;;;5000690;28;20037;-85
2023/05/08 06:39:16;;;;;;;14.02;10.25;;;12.10;99.90;;;;;;5002600;28;20041;-85
2023/05/08 06:41:42;;;;;;;14.70;10.73;;;12.10;99.90;;;;;;4997265;28;20026;-84
2023/05/08 06:44:09;;;;;;;12.98;10.13;;;12.20;99.90;;;;;;4994221;28;20038;-85
2023/05/08 06:46:35;;;;;;;16.02;9.88;;;12.30;99.90;;;;;;4993331;28;20030;-83
2023/05/08 06:49:00;;;;;;;12.48;10.35;;;12.30;99.90;;;;;;4992940;28;20164;-86
2023/05/08 06:51:26;;;;;;;13.10;10.32;;;12.30;99.90;;;;;;4996452;28;20105;-89
2023/05/08 06:53:51;;;;;;;15.02;10.73;;;12.30;99.90;;;;;;4991745;28;20096;-85
2023/05/08 06:56:17;;;;;;;14.20;10.50;;;12.30;99.90;;;;;;4998180;28;20080;-83
2023/05/08 06:58:43;;;;;;;15.70;11.25;;;12.30;99.90;;;;;;5001150;28;20044;-81
2023/05/08 07:01:08;;;;;;;17.65;12.50;;;12.40;99.90;;;;;;4998720;28;20065;-84
2023/05/08 07:03:34;;;;;;;14.63;11.70;;;12.40;99.90;;;;;;5000621;28;20034;-83
2023/05/08 07:05:59;;;;;;;13.10;9.80;;;12.40;99.90;;;;;;5000685;28;20033;-83
2023/05/08 07:08:25;;;;;;;13.30;10.68;;;12.40;99.90;;;;;;5004382;28;20046;-84
2023/05/08 07:10:50;;;;;;;17.67;11.45;;;12.50;99.90;;;;;;5000776;28;20044;-84
2023/05/08 07:13:20;;;;;;;15.18;10.93;;;12.50;99.90;;;;;;4998569;28;20030;-86
2023/05/08 07:15:46;;;;;;;12.85;10.50;;;12.60;99.90;;;;;;4999144;28;20034;-86
2023/05/08 07:18:11;;;;;;;14.90;10.98;;;12.60;99.90;;;;;;4998823;28;20096;-87
2023/05/08 07:20:37;;;;;;;13.98;11.05;;;12.60;99.90;;;;;;4999087;28;20034;-86
2023/05/08 07:23:02;;;;;;;12.93;10.65;;;12.70;99.90;;;;;;5002221;28;20037;-86
2023/05/08 07:25:28;;;;;;;15.35;11.43;;;12.80;99.90;;;;;;5001868;28;20037;-86
2023/05/08 07:27:54;;;;;;;14.70;10.55;;;12.70;99.90;;;;;;5002540;28;20026;-85
2023/05/08 07:30:19;;;;;;;14.85;10.77;;;12.80;99.90;;;;;;4997535;28;20065;-86
2023/05/08 07:32:45;;;;;;;13.52;11.27;;;12.90;99.90;;;;;;5002824;28;20418;-87
2023/05/08 07:35:11;;;;;;;14.80;11.20;;;12.90;99.90;;;;;;5003902;28;20058;-85
2023/05/08 07:37:37;;;;;;;14.52;10.82;;;12.90;99.90;;;;;;5005812;28;20037;-86
2023/05/08 07:40:03;;;;;;;20.83;12.05;;;13.00;99.90;;;;;;5001037;28;20038;-87
2023/05/08 07:42:29;;;;;;;13.45;10.23;;;13.00;99.90;;;;;;5002532;28;20149;-85
2023/05/08 07:44:55;;;;;;;15.23;10.57;;;13.10;99.90;;;;;;4998979;28;20033;-86
2023/05/08 07:47:20;;;;;;;15.15;11.05;;;13.20;99.90;;;;;;4999161;28;20026;-84
2023/05/08 07:49:46;;;;;;;13.07;10.80;;;13.30;99.90;;;;;;4998661;28;20048;-88
2023/05/08 07:52:11;;;;;;;12.98;10.00;;;13.50;99.90;;;;;;4996953;28;20037;-85
2023/05/08 07:54:37;;;;;;;15.18;11.07;;;13.60;99.90;;;;;;4997890;28;21250;-87
2023/05/08 07:57:02;;;;;;;15.20;10.68;;;13.60;99.90;;;;;;4999759;28;20661;-86
2023/05/08 07:59:28;;;;;;;14.23;10.40;;;13.70;99.90;;;;;;4998820;28;20828;-86
2023/05/08 08:01:53;;;;;;;16.10;11.20;;;13.70;99.90;;;;;;4999889;28;20026;-86
2023/05/08 08:04:19;;;;;;;12.82;10.20;;;13.70;99.90;;;;;;4998719;28;20153;-88
2023/05/08 08:06:45;;;;;;;14.38;11.93;;;13.80;99.90;;;;;;4998740;28;20030;-87
2023/05/08 08:09:11;;;;;;;13.55;9.70;;;13.90;99.90;;;;;;4994318;28;20061;-87
2023/05/08 08:11:36;;;;;;;13.30;10.45;;;14.00;99.90;;;;;;4991602;28;20026;-86
2023/05/08 08:14:02;;;;;;;14.55;10.50;;;14.10;99.90;;;;;;4992798;28;20369;-89
2023/05/08 08:16:27;;;;;;;14.20;10.27;;;14.20;99.90;;;;;;4992038;28;20891;-87
2023/05/08 08:18:53;;;;;;;12.30;10.23;;;14.20;99.90;;;;;;4992295;28;20459;-87
2023/05/08 08:21:19;;;;;;;13.65;11.18;;;14.40;99.90;;;;;;4990626;28;20110;-88
2023/05/08 08:23:44;;;;;;;13.85;10.40;;;14.40;99.90;;;;;;4992784;28;20037;-87
2023/05/08 08:26:10;;;;;;;14.60;11.25;;;14.40;99.90;;;;;;4993103;28;20056;-86
2023/05/08 08:28:36;;;;;;;13.30;10.27;;;14.40;99.90;;;;;;4992889;28;20120;-87
2023/05/08 08:31:02;;;;;;;16.48;10.65;;;14.40;99.90;;;;;;4991685;28;20416;-88
2023/05/08 08:33:28;;;;;;;12.90;10.50;;;14.40;99.90;;;;;;4992333;28;20018;-90
2023/05/08 08:35:54;;;;;;;13.80;10.73;;;14.50;99.90;;;;;;4992759;28;20045;-87
2023/05/08 08:38:19;;;;;;;14.52;9.75;;;14.50;99.90;;;;;;4992540;28;20030;-87
2023/05/08 08:40:45;;;;;;;13.73;10.63;;;14.60;99.90;;;;;;4991914;28;20085;-87
2023/05/08 08:43:10;;;;;;;14.32;10.40;;;14.70;99.90;;;;;;4992829;28;20113;-87
2023/05/08 08:45:36;;;;;;;12.57;10.05;;;14.90;99.90;;;;;;4991311;28;20064;-89
2023/05/08 08:48:03;;;;;;;13.38;10.77;;;15.00;99.90;;;;;;4992554;28;20479;-86
2023/05/08 08:50:33;;;;;;;19.45;11.93;;;15.20;99.90;;;;;;4992457;28;20026;-88
2023/05/08 08:53:17;;;;;;;13.77;10.93;;;15.40;99.90;;;;;;4992273;28;20038;-88
2023/05/08 08:55:45;;;;;;;14.18;11.48;;;15.60;99.90;;;;;;4991552;28;20038;-87
2023/05/08 08:58:32;;;;;;;18.80;12.45;;;15.70;99.90;;;;;;4990090;28;20030;-87
2023/05/08 09:00:59;;;;;;;14.60;10.07;;;15.80;99.90;;;;;;4990979;28;20061;-89
2023/05/08 09:03:26;;;;;;;14.15;11.35;;;15.80;99.90;;;;;;5006679;28;20026;-85
2023/05/08 09:05:52;;;;;;;16.48;11.70;;;15.90;99.90;;;;;;4987266;28;20526;-77
2023/05/08 09:08:18;;;;;;;17.20;11.20;;;15.90;99.90;;;;;;4989971;28;20597;-77
2023/05/08 09:10:45;;;;;;;16.27;11.45;;;16.00;99.90;;;;;;4988694;28;20066;-76
2023/05/08 09:13:11;;;;;;;15.60;11.07;;;16.10;99.90;;;;;;4987892;28;20026;-77
2023/05/08 09:15:36;;;;;;;13.98;10.98;;;16.10;99.90;;;;;;4990055;28;20093;-77
2023/05/08 09:18:02;;;;;;;18.25;11.82;;;16.30;99.90;;;;;;4984890;28;20037;-76
2023/05/08 09:20:28;;;;;;;13.60;11.60;;;16.40;99.90;;;;;;4983810;28;20049;-76
2023/05/08 09:22:54;;;;;;;14.82;12.38;;;16.40;99.90;;;;;;4986100;28;20030;-81
2023/05/08 09:25:20;;;;;;;14.23;11.00;;;16.50;99.90;;;;;;4992238;28;20034;-86
2023/05/08 09:27:46;;;;;;;15.98;12.48;;;16.60;99.90;;;;;;4993062;28;20030;-90
2023/05/08 09:30:13;;;;;;;16.50;12.98;;;16.60;99.90;;;;;;4991040;28;20034;-88
2023/05/08 09:32:40;;;;;;;16.00;11.70;;;16.70;99.90;;;;;;4993605;28;20080;-88
2023/05/08 09:35:08;;;;;;;13.75;12.25;;;16.70;99.90;;;;;;4992769;28;20109;-90
2023/05/08 09:37:38;;;;;;;16.05;11.73;;;16.90;99.90;;;;;;4992474;28;20037;-90
2023/05/08 09:40:19;;;;;;;16.45;13.32;;;17.00;99.90;;;;;;4990973;28;20169;-88
2023/05/08 09:42:46;;;;;;;14.35;12.15;;;17.00;99.90;;;;;;4991436;28;20030;-90
2023/05/08 09:45:26;;;;;;;17.10;12.98;;;16.80;99.90;;;;;;4991567;28;20991;-89
2023/05/08 09:47:52;;;;;;;17.05;13.18;;;16.80;99.90;;;;;;4994431;28;20084;-88
2023/05/08 09:50:17;;;;;;;14.80;12.45;;;16.90;99.90;;;;;;4999514;28;20236;-89
2023/05/08 09:52:46;;;;;;;14.50;12.05;;;17.10;99.90;;;;;;4992764;28;20558;-88
2023/05/08 09:55:12;;;;;;;15.38;12.93;;;17.20;99.90;;;;;;4991081;28;20197;-91
2023/05/08 09:57:50;;;;;;;15.18;12.90;;;17.30;99.90;;;;;;4989478;28;20073;-90
2023/05/08 10:00:19;;;;;;;15.88;12.15;;;17.40;99.90;;;;;;4988892;28;20096;-88
2023/05/08 10:02:54;;;;;;;23.88;13.18;;;17.60;99.90;;;;;;4990442;28;20026;-92
2023/05/08 10:05:24;;;;;;;23.75;12.48;;;17.70;99.90;;;;;;4990851;28;20080;-89
2023/05/08 10:07:49;;;;;;;13.15;11.65;;;17.70;99.90;;;;;;4992042;28;20018;-88
2023/05/08 10:10:26;;;;;;;18.02;13.20;;;17.70;99.90;;;;;;4990861;28;21062;-88
2023/05/08 10:12:53;;;;;;;22.40;14.05;;;17.70;99.90;;;;;;4990595;28;20026;-90
2023/05/08 10:15:24;;;;;;;15.90;13.02;;;17.80;99.90;;;;;;4989986;28;20101;-90
2023/05/08 10:17:56;;;;;;;15.15;13.55;;;17.80;99.90;;;;;;4988987;28;20123;-91
2023/05/08 10:20:24;;;;;;;15.18;12.77;;;17.90;99.90;;;;;;4988400;28;20491;-90
2023/05/08 10:22:51;;;;;;;18.08;13.80;;;18.00;99.90;;;;;;4990324;28;20085;-92
2023/05/08 10:25:21;;;;;;;17.75;13.00;;;18.10;99.90;;;;;;4990501;28;20111;-88
2023/05/08 10:27:54;;;;;;;20.70;14.02;;;18.20;99.90;;;;;;4991338;28;20605;-89
2023/05/08 10:30:24;;;;;;;16.65;13.43;;;18.40;99.90;;;;;;4990665;28;20046;-90
2023/05/08 10:32:54;;;;;;;18.45;12.95;;;18.60;99.90;;;;;;4993135;28;20026;-90
2023/05/08 10:35:20;;;;;;;18.20;14.90;;;18.80;99.90;;;;;;4992444;28;20098;-88
2023/05/08 10:37:48;;;;;;;23.15;14.93;;;18.60;99.90;;;;;;4990386;28;20038;-89
2023/05/08 10:40:14;;;;;;;17.70;14.43;;;18.40;99.90;;;;;;4988561;28;20053;-86
2023/05/08 10:42:41;;;;;;;20.73;14.77;;;18.40;99.90;;;;;;4990715;28;20029;-88
2023/05/08 10:45:08;;;;;;;17.90;15.57;;;18.20;99.90;;;;;;4989460;28;20030;-86
2023/05/08 10:47:43;;;;;;;20.42;14.82;;;18.00;99.90;;;;;;4990233;28;20489;-86
2023/05/08 10:50:48;;;;;;;20.55;15.57;;;17.90;99.90;;;;;;4989419;28;20035;-90
2023/05/08 10:53:23;;;;;;;17.52;14.60;;;18.00;99.90;;;;;;5005264;28;20092;-87
2023/05/08 10:55:50;;;;;;;17.83;14.23;;;18.00;99.90;;;;;;4990685;28;20104;-89
2023/05/08 10:58:29;;;;;;;18.05;14.35;;;18.00;99.90;;;;;;4990816;28;20470;-87
2023/05/08 11:00:58;;;;;;;18.45;14.75;;;17.90;99.90;;;;;;4988991;28;20046;-88
2023/05/08 11:03:25;;;;;;;22.70;15.52;;;18.00;99.90;;;;;;4989719;28;20029;-90
2023/05/08 11:05:55;;;;;;;19.75;14.75;;;17.90;99.90;;;;;;4988044;28;20462;-80
2023/05/08 11:08:31;;;;;;;19.30;16.45;;;18.00;99.90;;;;;;4984310;28;20048;-80
2023/05/08 11:11:00;;;;;;;24.75;15.50;;;18.00;99.90;;;;;;4988342;28;20054;-80
2023/05/08 11:13:48;;;;;;;17.98;15.00;;;18.10;99.90;;;;;;4987935;28;20034;-80
2023/05/08 11:16:15;;;;;;;18.48;14.35;;;18.30;99.90;;;;;;4988446;28;20034;-80
2023/05/08 11:19:15;;;;;;;18.52;13.98;;;18.40;99.90;;;;;;4988423;28;20073;-80
2023/05/08 11:22:10;;;;;;;21.30;15.05;;;18.50;99.90;;;;;;4987827;28;20042;-80
2023/05/08 11:24:37;;;;;;;18.58;14.35;;;18.70;99.90;;;;;;4988392;28;20569;-80
2023/05/08 11:27:03;;;;;;;18.48;13.65;;;18.70;99.90;;;;;;4985647;28;20038;-80
2023/05/08 11:29:29;;;;;;;18.33;15.10;;;18.70;99.90;;;;;;4984633;28;20053;-80
2023/05/08 11:31:55;;;;;;;19.33;16.50;;;18.80;99.90;;;;;;4989339;28;20211;-80
2023/05/08 11:34:48;;;;;;;18.42;14.70;;;18.70;99.90;;;;;;4984086;28;20034;-79
2023/05/08 11:37:22;;;;;;;26.98;16.17;;;18.70;99.90;;;;;;4984398;28;20495;-80
2023/05/08 11:39:49;;;;;;;24.10;16.08;;;18.60;99.90;;;;;;4983904;28;20058;-79
2023/05/08 11:42:26;;;;;;;19.17;15.65;;;18.40;99.90;;;;;;4986470;28;20130;-80
2023/05/08 11:45:11;;;;;;;19.55;15.55;;;18.40;99.90;;;;;;4990320;28;20736;-80
2023/05/08 11:47:40;;;;;;;;;;;18.30;99.90;;;;;;4990255;28;20033;-79
2023/05/08 11:50:07;;;;;;;20.35;15.65;;;18.30;99.90;;;;;;4987063;28;20008;-80
2023/05/08 11:52:34;;;;;;;20.85;16.10;;;18.20;99.90;;;;;;4987141;28;20029;-80
2023/05/08 11:55:04;;;;;;;17.98;15.10;;;18.20;99.90;;;;;;4986749;28;20059;-79
2023/05/08 11:57:33;;;;;;;18.73;15.25;;;18.20;99.90;;;;;;4989314;28;20035;-80
2023/05/08 12:00:09;;;;;;;16.00;14.30;;;18.20;99.90;;;;;;4992835;28;20046;-80
2023/05/08 12:02:36;;;;;;;17.70;14.43;;;18.30;99.90;;;;;;4992325;28;20038;-80
2023/05/08 12:05:02;;;;;;;16.48;14.13;;;18.20;99.90;;;;;;4992256;28;20034;-80
2023/05/08 12:07:28;;;;;;;17.35;14.88;;;18.30;99.90;;;;;;4991136;28;20037;-80
2023/05/08 12:09:54;;;;;;;15.77;14.07;;;18.40;99.90;;;;;;4989560;28;20042;-80
2023/05/08 12:12:20;;;;;;;17.92;16.02;;;18.50;99.90;;;;;;4992150;28;20104;-80
2023/05/08 12:14:49;;;;;;;19.27;15.75;;;18.60;99.90;;;;;;4992038;28;20038;-80
2023/05/08 12:17:18;;;;;;;16.08;14.00;;;18.60;99.90;;;;;;4991642;28;20041;-80
2023/05/08 12:19:44;;;;;;;13.98;12.55;;;18.60;99.90;;;;;;4997001;28;20034;-80
2023/05/08 12:22:09;;;;;;;19.60;15.38;;;18.70;99.90;;;;;;4990799;28;20089;-88
2023/05/08 12:24:35;;;;;;;17.67;14.15;;;18.70;99.90;;;;;;4992144;28;20401;-90
2023/05/08 12:27:01;;;;;;;18.23;14.40;;;18.70;99.90;;;;;;4990237;28;20034;-89
2023/05/08 12:29:26;;;;;;;15.70;13.80;;;18.80;99.90;;;;;;4998896;28;20042;-88
2023/05/08 12:31:52;;;;;;;14.02;12.40;;;18.80;99.90;;;;;;4998009;28;20109;-87
2023/05/08 12:34:19;;;;;;;17.20;15.02;;;18.80;99.90;;;;;;4991951;28;20042;-88
2023/05/08 12:36:44;;;;;;;18.65;13.88;;;18.70;99.90;;;;;;4990031;28;20172;-88
2023/05/08 12:39:12;;;;;;;16.38;13.68;;;18.60;99.90;;;;;;4990875;28;20407;-88
2023/05/08 12:41:45;;;;;;;14.57;12.90;;;18.60;99.90;;;;;;4992657;28;20030;-89